TimePST,TemperatureF,Dew PointF,Humidity,Sea Level PressureIn,VisibilityMPH,Wind Direction,Wind SpeedMPH,Gust SpeedMPH,PrecipitationIn,Events,Conditions,WindDirDegrees,DateUTC
12:54 AM,39.9,33.1,77,30.27,8.0,ENE,3.5,-,N/A,,Unknown,60,2013-12-13 08:54:00
1:54 AM,37.9,33.1,83,30.28,8.0,East,4.6,-,N/A,,Unknown,100,2013-12-13 09:54:00
2:54 AM,39.9,35.1,83,30.29,8.0,East,3.5,-,N/A,,Unknown,80,2013-12-13 10:54:00
3:54 AM,37.9,33.1,83,30.29,8.0,Calm,Calm,-,N/A,,Unknown,0,2013-12-13 11:54:00
4:54 AM,39.9,37.0,89,30.27,7.0,Calm,Calm,-,N/A,,Unknown,0,2013-12-13 12:54:00
5:54 AM,43.0,39.9,89,30.29,5.0,ENE,5.8,-,N/A,,Mist,70,2013-12-13 13:54:00
6:54 AM,43.0,39.9,89,30.30,6.0,ENE,5.8,-,N/A,,Mist,60,2013-12-13 14:54:00
7:54 AM,44.1,41.0,89,30.32,3.0,ENE,3.5,-,N/A,,Overcast,60,2013-12-13 15:54:00
7:57 AM,42.8,41.0,93,30.29,2.5,NE,4.6,-,N/A,,Mist,50,2013-12-13 15:57:00
8:21 AM,44.6,41.0,87,30.30,3.0,NE,4.6,-,N/A,,Mist,50,2013-12-13 16:21:00
8:54 AM,44.1,41.0,89,30.35,5.0,ENE,4.6,-,N/A,,Mist,60,2013-12-13 16:54:00
9:54 AM,45.0,44.1,97,30.38,4.0,Calm,Calm,-,N/A,,Mist,0,2013-12-13 17:54:00
10:54 AM,48.0,43.0,83,30.36,5.0,Calm,Calm,-,N/A,,Haze,0,2013-12-13 18:54:00
11:54 AM,52.0,43.0,71,30.33,7.0,Calm,Calm,-,N/A,,Clear,0,2013-12-13 19:54:00
12:54 PM,52.0,43.0,71,30.31,7.0,West,6.9,-,N/A,,Unknown,280,2013-12-13 20:54:00
1:54 PM,53.1,43.0,69,30.30,6.0,West,4.6,-,N/A,,Haze,280,2013-12-13 21:54:00
2:54 PM,55.0,43.0,64,30.29,6.0,West,3.5,-,N/A,,Haze,270,2013-12-13 22:54:00
3:54 PM,55.0,43.0,64,30.29,7.0,West,3.5,-,N/A,,Unknown,280,2013-12-13 23:54:00
4:54 PM,-9999,-9999,N/A,30.26,8.0,Calm,Calm,-,N/A,,Unknown,0,2013-12-14 00:54:00
5:54 PM,-9999,-9999,N/A,30.26,8.0,Calm,Calm,-,N/A,,Unknown,0,2013-12-14 01:54:00
6:54 PM,-9999,-9999,N/A,30.27,8.0,Calm,Calm,-,N/A,,Unknown,0,2013-12-14 02:54:00
7:54 PM,-9999,-9999,N/A,30.28,8.0,NNE,3.5,-,N/A,,Unknown,30,2013-12-14 03:54:00
8:54 PM,-9999,-9999,N/A,30.29,8.0,East,4.6,-,N/A,,Unknown,100,2013-12-14 04:54:00
9:54 PM,-9999,-9999,N/A,30.30,8.0,ENE,4.6,-,N/A,,Unknown,70,2013-12-14 05:54:00
10:54 PM,44.1,34.0,68,30.35,10.0,ENE,4.6,-,N/A,,Unknown,70,2013-12-14 06:54:00
11:54 PM,42.1,32.0,67,30.35,10.0,East,3.5,-,N/A,,Unknown,80,2013-12-14 07:54:00